createdAt,value
2017-08-11T00:00:23.929Z,99808.70
2017-08-11T00:02:51.536Z,99819.86
2017-08-11T00:05:19.204Z,99812.57
2017-08-11T00:07:46.811Z,99816.80
2017-08-11T00:10:14.415Z,99816.70
2017-08-11T00:12:42.119Z,99813.38
2017-08-11T00:15:09.733Z,99815.19
2017-08-11T00:17:37.344Z,99806.34
2017-08-11T00:20:05.011Z,99809.43
2017-08-11T00:22:32.628Z,99811.75
2017-08-11T00:25:00.852Z,99810.53
2017-08-11T00:27:28.520Z,99812.41
2017-08-11T00:29:56.117Z,99812.82
2017-08-11T00:32:23.731Z,99816.75
2017-08-11T00:34:51.407Z,99813.62
2017-08-11T00:37:19.011Z,99815.85
2017-08-11T00:39:46.623Z,99816.36
2017-08-11T00:42:14.312Z,99819.84
2017-08-11T00:44:41.911Z,99815.19
2017-08-11T00:47:09.515Z,99817.42
2017-08-11T00:49:37.144Z,99824.48
2017-08-11T00:52:04.751Z,99825.22
2017-08-11T00:54:32.357Z,99816.25
2017-08-11T00:57:00.011Z,99820.00
2017-08-11T00:59:27.606Z,99817.92
2017-08-11T01:01:55.237Z,99811.84
2017-08-11T01:04:22.903Z,99813.62
2017-08-11T01:06:50.557Z,99811.04
2017-08-11T01:09:18.156Z,99817.86
2017-08-11T01:11:45.820Z,99813.37
2017-08-11T01:14:13.426Z,99818.00
2017-08-11T01:16:41.041Z,99816.31
2017-08-11T01:19:08.714Z,99810.36
2017-08-11T01:21:36.339Z,99807.57
2017-08-11T01:24:04.032Z,99811.04
2017-08-11T01:26:31.711Z,99813.12
2017-08-11T01:28:59.335Z,99814.08
2017-08-11T01:31:26.951Z,99811.86
2017-08-11T01:33:54.626Z,99815.70
2017-08-11T01:36:22.240Z,99814.22
2017-08-11T01:38:49.846Z,99801.50
2017-08-11T01:41:17.497Z,99801.48
2017-08-11T01:43:45.096Z,99800.84
2017-08-11T01:46:12.693Z,99805.30
2017-08-11T01:48:40.363Z,99804.08
2017-08-11T01:51:07.961Z,99796.00
2017-08-11T01:53:35.650Z,99801.55
2017-08-11T01:56:03.328Z,99791.22
2017-08-11T01:58:30.925Z,99789.16
2017-08-11T02:00:58.531Z,99791.83
2017-08-11T02:03:26.203Z,99790.42
2017-08-11T02:05:53.822Z,99786.47
2017-08-11T02:08:21.483Z,99789.48
2017-08-11T02:10:50.132Z,99788.20
2017-08-11T02:13:17.762Z,99799.36
2017-08-11T02:15:45.364Z,99798.11
2017-08-11T02:18:13.036Z,99797.91
2017-08-11T02:20:40.668Z,99796.17
2017-08-11T02:23:08.291Z,99789.29
2017-08-11T02:25:35.953Z,99789.69
2017-08-11T02:28:03.560Z,99779.84
2017-08-11T02:30:31.158Z,99784.64
2017-08-11T02:32:58.800Z,99779.12
2017-08-11T02:35:26.381Z,99779.02
2017-08-11T02:37:54.091Z,99776.81
2017-08-11T02:40:21.764Z,99775.50
2017-08-11T02:42:49.356Z,99774.67
2017-08-11T02:45:16.980Z,99778.48
2017-08-11T02:47:44.664Z,99776.65
2017-08-11T02:50:12.261Z,99775.38
2017-08-11T02:52:39.884Z,99781.58
2017-08-11T02:55:07.548Z,99773.47
2017-08-11T02:57:35.155Z,99772.98
2017-08-11T03:00:02.775Z,99775.39
2017-08-11T03:02:30.440Z,99778.30
2017-08-11T03:04:58.056Z,99779.66
2017-08-11T03:07:25.661Z,99785.45
2017-08-11T03:09:53.409Z,99785.19
2017-08-11T03:12:21.020Z,99783.75
2017-08-11T03:14:48.655Z,99783.86
2017-08-11T03:17:16.314Z,99788.44
2017-08-11T03:19:43.921Z,99790.53
2017-08-11T03:22:11.521Z,99785.81
2017-08-11T03:24:39.195Z,99782.83
2017-08-11T03:27:06.827Z,99783.23
2017-08-11T03:29:34.433Z,99775.17
2017-08-11T03:32:02.161Z,99781.84
2017-08-11T03:34:29.761Z,99777.38
2017-08-11T03:36:57.357Z,99776.45
2017-08-11T03:39:25.078Z,99771.75
2017-08-11T03:41:52.698Z,99773.73
2017-08-11T03:44:20.306Z,99770.89
2017-08-11T03:46:47.965Z,99771.74
2017-08-11T03:49:15.543Z,99769.64
2017-08-11T03:51:43.136Z,99775.92
2017-08-11T03:54:10.800Z,99774.60
2017-08-11T03:56:38.419Z,99768.34
2017-08-11T03:59:06.033Z,99762.88
2017-08-11T04:01:33.679Z,99769.48
2017-08-11T04:04:01.292Z,99764.44
2017-08-11T04:06:28.895Z,99763.02
2017-08-11T04:08:56.560Z,99762.47
2017-08-11T04:11:24.253Z,99763.27
2017-08-11T04:13:51.864Z,99757.32
2017-08-11T04:16:19.530Z,99753.75
2017-08-11T04:18:47.145Z,99755.34
2017-08-11T04:21:14.736Z,99754.74
2017-08-11T04:23:42.392Z,99753.36
2017-08-11T04:26:09.999Z,99752.36
2017-08-11T04:28:37.606Z,99749.81
2017-08-11T04:31:05.293Z,99748.39
2017-08-11T04:33:32.959Z,99755.20
2017-08-11T04:36:00.554Z,99749.02
2017-08-11T04:38:28.209Z,99750.29
2017-08-11T04:40:55.818Z,99745.30
2017-08-11T04:43:23.437Z,99752.55
2017-08-11T04:45:51.068Z,99747.53
2017-08-11T04:48:18.670Z,99743.22
2017-08-11T04:50:46.292Z,99745.53
2017-08-11T04:53:13.938Z,99746.00
2017-08-11T04:55:41.533Z,99750.23
2017-08-11T04:58:09.191Z,99747.75
2017-08-11T05:00:36.850Z,99743.36
2017-08-11T05:03:04.462Z,99756.87
2017-08-11T05:05:32.061Z,99739.55
2017-08-11T05:07:59.705Z,99736.17
2017-08-11T05:10:27.378Z,99739.37
2017-08-11T05:12:55.000Z,99743.06
2017-08-11T05:15:22.654Z,99738.66
2017-08-11T05:17:50.241Z,99737.27
2017-08-11T05:20:17.847Z,99736.20
2017-08-11T05:22:45.593Z,99740.70
2017-08-11T05:25:13.212Z,99743.70
2017-08-11T05:27:40.816Z,99745.47
2017-08-11T05:30:08.482Z,99743.38
2017-08-11T05:32:36.114Z,99745.92
2017-08-11T05:35:03.709Z,99742.21
2017-08-11T05:37:31.375Z,99740.11
2017-08-11T05:39:58.986Z,99731.89
2017-08-11T05:42:26.607Z,99743.84
2017-08-11T05:44:54.289Z,99740.98
2017-08-11T05:47:21.893Z,99743.98
2017-08-11T05:49:49.508Z,99737.57
2017-08-11T05:52:17.175Z,99735.05
2017-08-11T05:54:44.773Z,99737.13
2017-08-11T05:57:12.377Z,99732.98
2017-08-11T05:59:40.055Z,99735.44
2017-08-11T06:02:07.664Z,99736.62
2017-08-11T06:04:35.323Z,99729.38
2017-08-11T06:07:02.970Z,99725.67
2017-08-11T06:09:30.548Z,99722.10
2017-08-11T06:11:58.158Z,99733.02
2017-08-11T06:14:26.053Z,99734.72
2017-08-11T06:16:53.654Z,99733.32
2017-08-11T06:19:21.247Z,99731.52
2017-08-11T06:21:48.900Z,99722.02
2017-08-11T06:24:16.494Z,99718.25
2017-08-11T06:26:44.088Z,99721.61
2017-08-11T06:29:11.767Z,99723.11
2017-08-11T06:31:39.388Z,99724.17
2017-08-11T06:34:06.988Z,99725.27
2017-08-11T06:36:34.650Z,99723.71
2017-08-11T06:39:02.248Z,99720.97
2017-08-11T06:41:29.875Z,99720.72
2017-08-11T06:43:57.548Z,99720.86
2017-08-11T06:46:25.145Z,99718.53
2017-08-11T06:48:52.849Z,99715.84
2017-08-11T06:51:20.516Z,99715.67
2017-08-11T06:53:48.132Z,99713.42
2017-08-11T06:56:15.742Z,99717.23
2017-08-11T06:58:43.439Z,99718.89
2017-08-11T07:01:11.054Z,99716.70
2017-08-11T07:03:38.675Z,99712.78
2017-08-11T07:06:06.339Z,99714.19
2017-08-11T07:08:33.946Z,99712.44
2017-08-11T07:11:01.580Z,99707.67
2017-08-11T07:13:29.233Z,99708.50
2017-08-11T07:15:56.882Z,99706.14
2017-08-11T07:18:24.494Z,99700.53
2017-08-11T07:20:52.172Z,99700.34
2017-08-11T07:23:19.764Z,99693.83
2017-08-11T07:25:47.383Z,99698.73
2017-08-11T07:28:15.037Z,99695.89
2017-08-11T07:30:42.649Z,99694.88
2017-08-11T07:33:10.290Z,99691.09
2017-08-11T07:35:37.941Z,99689.02
2017-08-11T07:38:05.537Z,99696.25
2017-08-11T07:40:33.157Z,99696.29
2017-08-11T07:43:00.846Z,99691.23
2017-08-11T07:45:28.452Z,99689.87
2017-08-11T07:47:56.076Z,99685.80
2017-08-11T07:50:23.735Z,99683.78
2017-08-11T07:52:51.354Z,99685.99
2017-08-11T07:55:18.976Z,99682.66
2017-08-11T07:57:46.682Z,99680.70
2017-08-11T08:00:14.294Z,99681.86
2017-08-11T08:02:41.895Z,99677.80
2017-08-11T08:05:09.555Z,99680.58
2017-08-11T08:07:37.168Z,99672.92
2017-08-11T08:10:04.780Z,99674.91
2017-08-11T08:12:32.456Z,99672.95
2017-08-11T08:15:00.080Z,99674.13
2017-08-11T08:17:27.736Z,99672.50
2017-08-11T08:19:55.398Z,99676.51
2017-08-11T08:22:23.016Z,99671.06
2017-08-11T08:24:50.630Z,99674.47
2017-08-11T08:27:18.311Z,99663.97
2017-08-11T08:29:45.928Z,99660.59
2017-08-11T08:32:13.537Z,99656.50
2017-08-11T08:34:41.181Z,99662.38
2017-08-11T08:37:08.790Z,99667.44
2017-08-11T08:39:36.402Z,99663.13
2017-08-11T08:42:04.057Z,99656.09
2017-08-11T08:44:31.665Z,99657.23
2017-08-11T08:46:59.319Z,99656.08
2017-08-11T08:49:26.985Z,99648.22
2017-08-11T08:51:54.592Z,99646.16
2017-08-11T08:54:22.216Z,99652.55
2017-08-11T08:56:49.878Z,99656.77
2017-08-11T08:59:17.504Z,99655.42
2017-08-11T09:01:45.122Z,99651.58
2017-08-11T09:04:12.798Z,99653.09
2017-08-11T09:06:40.420Z,99649.85
2017-08-11T09:09:08.030Z,99649.23
2017-08-11T09:11:35.709Z,99652.08
2017-08-11T09:14:03.303Z,99647.57
2017-08-11T09:16:30.902Z,99645.30
2017-08-11T09:18:58.578Z,99638.09
2017-08-11T09:21:26.167Z,99634.22
2017-08-11T09:23:53.761Z,99632.41
2017-08-11T09:26:33.017Z,99626.97
2017-08-11T09:29:12.267Z,99628.52
2017-08-11T09:31:51.525Z,99629.05
2017-08-11T09:34:30.659Z,99613.09
2017-08-11T09:36:58.320Z,99620.66
2017-08-11T09:39:26.014Z,99624.30
2017-08-11T09:41:53.642Z,99629.05
2017-08-11T09:44:21.517Z,99623.89
2017-08-11T09:46:49.151Z,99624.97
2017-08-11T09:49:16.753Z,99618.98
2017-08-11T09:51:44.412Z,99620.09
2017-08-11T09:54:12.651Z,99616.55
2017-08-11T09:56:40.268Z,99619.07
2017-08-11T09:59:07.922Z,99618.33
2017-08-11T10:01:35.539Z,99603.77
2017-08-11T10:04:03.160Z,99603.23
2017-08-11T10:06:30.838Z,99602.23
2017-08-11T10:08:58.502Z,99603.28
2017-08-11T10:11:26.169Z,99594.78
2017-08-11T10:13:53.829Z,99594.34
2017-08-11T10:16:21.438Z,99591.56
2017-08-11T10:18:49.084Z,99587.71
2017-08-11T10:21:16.789Z,99592.19
2017-08-11T10:23:44.410Z,99588.16
2017-08-11T10:26:12.026Z,99587.39
2017-08-11T10:28:39.683Z,99582.53
2017-08-11T10:31:07.277Z,99586.16
2017-08-11T10:33:34.886Z,99583.55
2017-08-11T10:36:02.538Z,99583.56
2017-08-11T10:38:30.147Z,99586.30
2017-08-11T10:40:57.768Z,99582.77
2017-08-11T10:43:25.434Z,99581.87
2017-08-11T10:45:53.031Z,99580.92
2017-08-11T10:48:20.635Z,99579.80
2017-08-11T10:50:48.325Z,99588.34
2017-08-11T10:53:16.315Z,99573.36
2017-08-11T10:55:43.917Z,99576.48
2017-08-11T10:58:11.583Z,99578.48
2017-08-11T11:00:39.182Z,99578.77
2017-08-11T11:03:06.801Z,99584.59
2017-08-11T11:05:34.869Z,99575.02
2017-08-11T11:08:02.598Z,99578.41
2017-08-11T11:10:30.598Z,99571.08
2017-08-11T11:12:58.580Z,99571.56
2017-08-11T11:15:26.538Z,99573.31
2017-08-11T11:17:54.567Z,99570.73
2017-08-11T11:20:22.270Z,99572.64
2017-08-11T11:22:50.182Z,99571.95
2017-08-11T11:25:17.798Z,99559.79
2017-08-11T11:27:45.871Z,99560.14
2017-08-11T11:30:13.597Z,99561.03
2017-08-11T11:32:41.400Z,99560.50
2017-08-11T11:35:09.060Z,99565.48
2017-08-11T11:37:36.676Z,99560.73
2017-08-11T11:40:04.284Z,99549.34
2017-08-11T11:42:31.925Z,99551.03
2017-08-11T11:44:59.520Z,99545.33
2017-08-11T11:47:27.112Z,99546.97
2017-08-11T11:49:54.831Z,99540.85
2017-08-11T11:52:22.446Z,99548.16
2017-08-11T11:54:50.056Z,99540.91
2017-08-11T11:57:17.697Z,99542.84
2017-08-11T11:59:45.298Z,99545.39
2017-08-11T12:02:12.898Z,99543.87
2017-08-11T12:04:40.539Z,99543.53
2017-08-11T12:07:08.143Z,99539.64
2017-08-11T12:09:35.733Z,99532.94
2017-08-11T12:12:03.385Z,99515.70
2017-08-11T12:14:30.976Z,99525.29
2017-08-11T12:16:58.598Z,99528.68
2017-08-11T12:19:26.296Z,99526.18
2017-08-11T12:21:53.913Z,99521.09
2017-08-11T12:24:21.517Z,99520.33
2017-08-11T12:26:49.193Z,99519.13
2017-08-11T12:29:16.795Z,99523.06
2017-08-11T12:31:44.419Z,99519.58
2017-08-11T12:34:12.112Z,99513.08
2017-08-11T12:36:39.883Z,99515.02
2017-08-11T12:39:07.514Z,99504.77
2017-08-11T12:41:35.178Z,99500.70
2017-08-11T12:44:02.790Z,99495.31
2017-08-11T12:46:30.500Z,99504.86
2017-08-11T12:48:58.193Z,99494.08
2017-08-11T12:51:25.803Z,99497.02
2017-08-11T12:53:53.439Z,99492.02
2017-08-11T12:56:21.290Z,99494.72
2017-08-11T12:58:48.971Z,99495.88
2017-08-11T13:01:16.572Z,99496.16
2017-08-11T13:03:44.281Z,99486.38
2017-08-11T13:06:12.309Z,99482.84
2017-08-11T13:08:40.223Z,99484.20
2017-08-11T13:11:08.244Z,99484.02
2017-08-11T13:13:36.163Z,99479.84
2017-08-11T13:16:03.825Z,99478.45
2017-08-11T13:18:31.652Z,99478.36
2017-08-11T13:20:59.633Z,99475.14
2017-08-11T13:23:27.420Z,99477.78
2017-08-11T13:25:55.539Z,99473.40
2017-08-11T13:28:23.205Z,99467.02
2017-08-11T13:30:51.024Z,99470.06
2017-08-11T13:33:19.020Z,99470.62
2017-08-11T13:35:46.862Z,99471.83
2017-08-11T13:38:14.686Z,99469.03
2017-08-11T13:40:42.651Z,99464.06
2017-08-11T13:43:10.469Z,99463.27
2017-08-11T13:45:38.286Z,99462.05
2017-08-11T13:48:06.278Z,99460.27
2017-08-11T13:50:34.167Z,99458.86
2017-08-11T13:53:01.858Z,99455.48
2017-08-11T13:55:29.851Z,99460.87
2017-08-11T13:57:57.669Z,99457.30
2017-08-11T14:00:25.633Z,99458.23
2017-08-11T14:02:53.280Z,99449.55
2017-08-11T14:05:20.873Z,99446.89
2017-08-11T14:07:48.487Z,99445.05
2017-08-11T14:10:16.129Z,99443.10
2017-08-11T14:12:43.771Z,99444.95
2017-08-11T14:15:11.392Z,99440.58
2017-08-11T14:17:39.041Z,99439.98
2017-08-11T14:20:06.660Z,99436.00
2017-08-11T14:22:34.272Z,99434.59
2017-08-11T14:25:01.937Z,99438.56
2017-08-11T14:27:29.769Z,99433.78
2017-08-11T14:29:57.393Z,99441.62
2017-08-11T14:32:25.053Z,99435.64
2017-08-11T14:34:52.648Z,99432.47
2017-08-11T14:37:20.255Z,99432.15
2017-08-11T14:39:47.923Z,99435.50
2017-08-11T14:42:15.544Z,99438.28
2017-08-11T14:44:43.129Z,99430.29
2017-08-11T14:47:10.783Z,99425.52
2017-08-11T14:49:38.387Z,99429.49
2017-08-11T14:52:06.000Z,99426.55
2017-08-11T14:54:33.667Z,99417.84
2017-08-11T14:57:01.278Z,99425.22
2017-08-11T14:59:28.895Z,99420.66
2017-08-11T15:01:56.539Z,99422.59
2017-08-11T15:04:24.148Z,99417.67
2017-08-11T15:06:51.757Z,99414.52
2017-08-11T15:09:19.401Z,99413.49
2017-08-11T15:11:47.012Z,99414.78
2017-08-11T15:14:14.612Z,99414.45
2017-08-11T15:16:42.251Z,99413.14
2017-08-11T15:19:09.857Z,99411.98
2017-08-11T15:21:37.469Z,99416.36
2017-08-11T15:24:05.141Z,99409.91
2017-08-11T15:26:32.747Z,99410.37
2017-08-11T15:29:00.359Z,99418.84
2017-08-11T15:31:28.082Z,99412.00
2017-08-11T15:33:55.689Z,99419.39
2017-08-11T15:36:23.301Z,99416.59
2017-08-11T15:38:50.945Z,99419.44
2017-08-11T15:41:18.565Z,99423.22
2017-08-11T15:43:46.168Z,99424.70
2017-08-11T15:46:13.818Z,99424.23
2017-08-11T15:48:41.421Z,99420.73
2017-08-11T15:51:09.055Z,99421.92
2017-08-11T15:53:36.695Z,99428.36
2017-08-11T15:56:04.299Z,99429.16
2017-08-11T15:58:31.904Z,99428.22
2017-08-11T16:00:59.663Z,99430.58
2017-08-11T16:03:27.269Z,99427.23
2017-08-11T16:05:55.237Z,99434.88
2017-08-11T16:08:22.904Z,99433.02
2017-08-11T16:10:50.501Z,99435.52
2017-08-11T16:13:18.108Z,99432.95
2017-08-11T16:15:45.792Z,99431.27
2017-08-11T16:18:13.413Z,99433.04
2017-08-11T16:20:41.101Z,99433.17
2017-08-11T16:23:08.753Z,99430.47
2017-08-11T16:25:36.345Z,99430.80
2017-08-11T16:28:03.964Z,99430.58
2017-08-11T16:30:31.742Z,99435.98
2017-08-11T16:32:59.346Z,99434.39
2017-08-11T16:35:26.937Z,99443.61
2017-08-11T16:37:54.580Z,99438.89
2017-08-11T16:40:22.187Z,99438.11
2017-08-11T16:42:49.787Z,99432.85
2017-08-11T16:45:17.429Z,99440.50
2017-08-11T16:47:45.038Z,99436.25
2017-08-11T16:50:12.644Z,99441.70
2017-08-11T16:52:40.288Z,99441.29
2017-08-11T16:55:07.883Z,99444.48
2017-08-11T16:57:35.474Z,99448.73
2017-08-11T17:00:03.116Z,99442.95
2017-08-11T17:02:30.727Z,99444.25
2017-08-11T17:04:58.325Z,99439.34
2017-08-11T17:07:25.951Z,99436.27
2017-08-11T17:09:53.572Z,99446.22
2017-08-11T17:12:21.199Z,99446.38
2017-08-11T17:14:48.883Z,99446.64
2017-08-11T17:17:16.498Z,99442.53
2017-08-11T17:19:44.106Z,99449.59
2017-08-11T17:22:11.761Z,99461.54
2017-08-11T17:24:39.368Z,99452.45
2017-08-11T17:27:06.993Z,99464.42
2017-08-11T17:29:34.652Z,99457.37
2017-08-11T17:32:02.291Z,99463.66
2017-08-11T17:34:29.957Z,99460.74
2017-08-11T17:36:57.601Z,99459.92
2017-08-11T17:39:25.267Z,99463.79
2017-08-11T17:41:52.891Z,99463.88
2017-08-11T17:44:20.537Z,99472.70
2017-08-11T17:46:48.151Z,99474.98
2017-08-11T17:49:15.780Z,99472.28
2017-08-11T17:51:43.450Z,99472.41
2017-08-11T17:54:11.055Z,99475.70
2017-08-11T17:56:38.653Z,99482.61
2017-08-11T17:59:06.321Z,99485.71
2017-08-11T18:01:33.965Z,99482.27
2017-08-11T18:04:01.592Z,99483.67
2017-08-11T18:06:29.260Z,99482.58
2017-08-11T18:08:56.872Z,99488.48
2017-08-11T18:11:24.494Z,99486.77
2017-08-11T18:13:52.127Z,99489.84
2017-08-11T18:16:19.729Z,99490.98
2017-08-11T18:18:47.349Z,99491.88
2017-08-11T18:21:15.007Z,99491.59
2017-08-11T18:23:42.604Z,99494.55
2017-08-11T18:26:10.205Z,99490.17
2017-08-11T18:28:37.830Z,99494.09
2017-08-11T18:31:05.456Z,99496.06
2017-08-11T18:33:33.096Z,99499.75
2017-08-11T18:36:00.766Z,99499.95
2017-08-11T18:38:28.383Z,99498.23
2017-08-11T18:40:55.994Z,99501.00
2017-08-11T18:43:23.661Z,99495.06
2017-08-11T18:45:51.273Z,99502.56
2017-08-11T18:48:18.881Z,99496.17
2017-08-11T18:50:46.590Z,99493.34
2017-08-11T18:53:14.207Z,99497.64
2017-08-11T18:55:41.828Z,99495.73
2017-08-11T18:58:09.485Z,99501.91
2017-08-11T19:00:37.118Z,99504.98
2017-08-11T19:03:04.767Z,99500.27
2017-08-11T19:05:32.413Z,99501.23
2017-08-11T19:08:00.035Z,99492.28
2017-08-11T19:10:27.681Z,99494.20
2017-08-11T19:12:55.325Z,99500.31
2017-08-11T19:15:22.937Z,99498.44
2017-08-11T19:17:50.545Z,99498.52
2017-08-11T19:20:18.195Z,99496.74
2017-08-11T19:22:45.856Z,99498.13
2017-08-11T19:25:13.468Z,99505.92
2017-08-11T19:27:41.231Z,99498.33
2017-08-11T19:30:08.845Z,99503.23
2017-08-11T19:32:36.474Z,99500.83
2017-08-11T19:35:04.204Z,99497.67
2017-08-11T19:37:31.836Z,99500.03
2017-08-11T19:39:59.437Z,99505.02
2017-08-11T19:42:27.087Z,99507.23
2017-08-11T19:44:54.696Z,99504.82
2017-08-11T19:47:22.307Z,99502.38
2017-08-11T19:49:49.969Z,99500.09
2017-08-11T19:52:17.573Z,99495.81
2017-08-11T19:54:45.180Z,99495.90
2017-08-11T19:57:12.845Z,99494.43
2017-08-11T19:59:40.450Z,99495.23
2017-08-11T20:02:08.055Z,99497.19
2017-08-11T20:04:35.686Z,99492.22
2017-08-11T20:07:03.299Z,99489.32
2017-08-11T20:09:30.916Z,99488.13
2017-08-11T20:11:59.350Z,99493.52
2017-08-11T20:14:26.988Z,99496.39
2017-08-11T20:16:54.644Z,99496.36
2017-08-11T20:19:22.298Z,99496.66
2017-08-11T20:21:49.937Z,99495.53
2017-08-11T20:24:17.541Z,99495.88
2017-08-11T20:26:45.190Z,99497.00
2017-08-11T20:29:12.785Z,99500.44
2017-08-11T20:31:40.373Z,99497.46
2017-08-11T20:34:08.044Z,99495.45
2017-08-11T20:36:35.671Z,99490.86
2017-08-11T20:39:03.360Z,99492.34
2017-08-11T20:41:31.007Z,99497.79
2017-08-11T20:43:58.634Z,99485.92
2017-08-11T20:46:26.239Z,99489.32
2017-08-11T20:48:53.900Z,99486.72
2017-08-11T20:51:21.498Z,99482.08
2017-08-11T20:53:49.109Z,99486.41
2017-08-11T20:56:16.768Z,99478.13
2017-08-11T20:58:44.379Z,99481.96
2017-08-11T21:01:11.998Z,99489.06
2017-08-11T21:03:39.645Z,99481.14
2017-08-11T21:06:07.256Z,99488.41
2017-08-11T21:08:34.920Z,99486.23
2017-08-11T21:11:02.571Z,99483.17
2017-08-11T21:13:30.259Z,99484.69
2017-08-11T21:15:57.906Z,99480.55
2017-08-11T21:18:25.779Z,99485.70
2017-08-11T21:20:53.732Z,99483.21
2017-08-11T21:23:21.426Z,99488.63
2017-08-11T21:25:49.147Z,99486.83
2017-08-11T21:28:17.166Z,99486.97
2017-08-11T21:30:44.881Z,99491.06
2017-08-11T21:33:12.696Z,99485.94
2017-08-11T21:35:40.538Z,99493.09
2017-08-11T21:38:08.534Z,99488.00
2017-08-11T21:40:36.195Z,99498.77
2017-08-11T21:43:03.802Z,99488.90
2017-08-11T21:45:31.423Z,99493.22
2017-08-11T21:47:59.057Z,99488.06
2017-08-11T21:50:26.666Z,99492.30
2017-08-11T21:52:54.266Z,99498.66
2017-08-11T21:55:21.927Z,99496.43
2017-08-11T21:57:49.529Z,99503.00
2017-08-11T22:00:17.155Z,99503.25
2017-08-11T22:02:44.807Z,99497.05
2017-08-11T22:05:12.415Z,99500.13
2017-08-11T22:07:40.164Z,99498.82
2017-08-11T22:10:08.106Z,99501.02
2017-08-11T22:12:36.046Z,99503.17
2017-08-11T22:15:03.864Z,99497.07
2017-08-11T22:17:31.632Z,99495.95
2017-08-11T22:19:59.495Z,99494.16
2017-08-11T22:22:27.343Z,99492.20
2017-08-11T22:24:55.018Z,99495.92
2017-08-11T22:27:22.749Z,99488.77
2017-08-11T22:29:50.616Z,99485.93
2017-08-11T22:32:18.580Z,99482.84
2017-08-11T22:34:46.496Z,99486.14
2017-08-11T22:37:14.214Z,99474.11
2017-08-11T22:39:42.409Z,99475.92
2017-08-11T22:42:10.303Z,99470.61
2017-08-11T22:44:38.163Z,99479.56
2017-08-11T22:47:05.825Z,99472.55
2017-08-11T22:49:33.513Z,99472.63
2017-08-11T22:52:01.271Z,99466.32
2017-08-11T22:54:29.227Z,99456.57
2017-08-11T22:56:56.885Z,99466.77
2017-08-11T22:59:24.624Z,99463.06
2017-08-11T23:01:52.612Z,99458.16
2017-08-11T23:04:20.358Z,99464.90
2017-08-11T23:06:48.322Z,99459.67
2017-08-11T23:09:16.062Z,99450.05
2017-08-11T23:11:43.952Z,99456.58
2017-08-11T23:14:11.698Z,99455.77
2017-08-11T23:16:39.517Z,99459.62
2017-08-11T23:19:07.290Z,99455.92
2017-08-11T23:21:35.152Z,99459.53
2017-08-11T23:24:03.004Z,99455.83
2017-08-11T23:26:30.857Z,99456.98
2017-08-11T23:28:58.748Z,99457.70
2017-08-11T23:31:26.611Z,99456.98
2017-08-11T23:33:54.274Z,99452.08
2017-08-11T23:36:22.127Z,99448.59
2017-08-11T23:38:49.870Z,99453.80
2017-08-11T23:41:17.669Z,99447.05
2017-08-11T23:43:45.502Z,99452.83
2017-08-11T23:46:13.247Z,99446.33
2017-08-11T23:48:41.271Z,99451.87
2017-08-11T23:51:09.344Z,99452.48
2017-08-11T23:53:37.395Z,99449.10
2017-08-11T23:56:05.282Z,99445.88
2017-08-11T23:58:33.008Z,99446.09
